Terminal Aerodrome Forecast
Issued by NWS

Home | Current Version | Previous Version | Text Only | Print | Product List | Glossary On
Versions: 1 2 3 4 5 6 7 8 9 10 11 12
537
FTUS42 KTBW 012342
TAFPIE
TAF
KPIE 012342Z 0200/0224 30009KT P6SM FEW060 FEW250
     FM020300 05007KT P6SM SCT040
     FM020600 11006KT P6SM FEW035
     FM021400 15009KT P6SM SCT040 SCT120
     FM021800 21008KT P6SM SCT050 SCT250
     FM022100 26012KT P6SM FEW050 SCT250=

USA.gov is the U.S. government's official web portal to all federal, state and local government web resources and services.